sensor_id;sensor_type;location;lat;lon;timestamp;P1;durP1;ratioP1;P2;durP2;ratioP2
9392;SDS011;4736;52.508;13.422;2023-07-31T00:01:04;3.33;;;3.13;;
9392;SDS011;4736;52.508;13.422;2023-07-31T00:04:07;3.50;;;3.20;;
9392;SDS011;4736;52.508;13.422;2023-07-31T00:07:12;3.60;;;3.30;;
9392;SDS011;4736;52.508;13.422;2023-07-31T00:10:15;2.70;;;2.60;;
9392;SDS011;4736;52.508;13.422;2023-07-31T00:13:19;2.70;;;2.60;;
9392;SDS011;4736;52.508;13.422;2023-07-31T00:16:24;2.97;;;2.87;;
9392;SDS011;4736;52.508;13.422;2023-07-31T00:19:27;2.97;;;2.77;;
9392;SDS011;4736;52.508;13.422;2023-07-31T00:22:32;3.67;;;3.37;;
9392;SDS011;4736;52.508;13.422;2023-07-31T00:25:35;3.50;;;3.10;;
9392;SDS011;4736;52.508;13.422;2023-07-31T00:28:38;3.83;;;3.27;;
9392;SDS011;4736;52.508;13.422;2023-07-31T00:31:41;3.47;;;3.27;;
9392;SDS011;4736;52.508;13.422;2023-07-31T00:34:45;4.03;;;3.83;;
9392;SDS011;4736;52.508;13.422;2023-07-31T00:37:49;3.27;;;3.10;;
9392;SDS011;4736;52.508;13.422;2023-07-31T00:40:52;3.90;;;3.60;;
9392;SDS011;4736;52.508;13.422;2023-07-31T00:43:56;4.10;;;3.80;;
9392;SDS011;4736;52.508;13.422;2023-07-31T00:46:59;3.93;;;3.63;;
9392;SDS011;4736;52.508;13.422;2023-07-31T00:50:05;3.50;;;3.30;;
9392;SDS011;4736;52.508;13.422;2023-07-31T00:53:11;4.77;;;3.50;;
9392;SDS011;4736;52.508;13.422;2023-07-31T00:56:15;4.07;;;3.53;;
9392;SDS011;4736;52.508;13.422;2023-07-31T00:59:24;4.43;;;4.13;;
9392;SDS011;4736;52.508;13.422;2023-07-31T01:02:27;4.53;;;4.23;;
9392;SDS011;4736;52.508;13.422;2023-07-31T01:05:33;3.83;;;3.70;;
9392;SDS011;4736;52.508;13.422;2023-07-31T01:08:44;4.27;;;3.90;;
9392;SDS011;4736;52.508;13.422;2023-07-31T01:11:57;4.07;;;3.80;;
9392;SDS011;4736;52.508;13.422;2023-07-31T01:15:04;4.27;;;3.93;;
9392;SDS011;4736;52.508;13.422;2023-07-31T01:18:12;4.00;;;3.80;;
9392;SDS011;4736;52.508;13.422;2023-07-31T01:21:19;4.73;;;4.43;;
9392;SDS011;4736;52.508;13.422;2023-07-31T01:24:36;4.10;;;3.90;;
9392;SDS011;4736;52.508;13.422;2023-07-31T01:27:53;5.83;;;4.50;;
9392;SDS011;4736;52.508;13.422;2023-07-31T01:31:03;4.87;;;4.47;;
9392;SDS011;4736;52.508;13.422;2023-07-31T01:34:11;5.00;;;4.70;;
9392;SDS011;4736;52.508;13.422;2023-07-31T01:37:16;3.90;;;3.70;;
9392;SDS011;4736;52.508;13.422;2023-07-31T01:40:20;3.70;;;3.40;;
9392;SDS011;4736;52.508;13.422;2023-07-31T01:43:24;4.93;;;4.47;;
9392;SDS011;4736;52.508;13.422;2023-07-31T01:46:27;4.53;;;4.33;;
9392;SDS011;4736;52.508;13.422;2023-07-31T01:49:31;4.23;;;3.90;;
9392;SDS011;4736;52.508;13.422;2023-07-31T01:52:34;4.00;;;3.70;;
9392;SDS011;4736;52.508;13.422;2023-07-31T01:55:37;4.57;;;4.20;;
9392;SDS011;4736;52.508;13.422;2023-07-31T01:58:42;3.80;;;3.60;;
9392;SDS011;4736;52.508;13.422;2023-07-31T02:01:45;3.87;;;3.67;;
9392;SDS011;4736;52.508;13.422;2023-07-31T02:04:48;3.77;;;3.57;;
9392;SDS011;4736;52.508;13.422;2023-07-31T02:07:52;3.60;;;3.40;;
9392;SDS011;4736;52.508;13.422;2023-07-31T02:10:55;4.23;;;3.97;;
9392;SDS011;4736;52.508;13.422;2023-07-31T02:13:59;4.30;;;3.93;;
9392;SDS011;4736;52.508;13.422;2023-07-31T02:17:03;4.40;;;3.97;;
9392;SDS011;4736;52.508;13.422;2023-07-31T02:20:18;4.03;;;3.73;;
9392;SDS011;4736;52.508;13.422;2023-07-31T02:23:22;3.90;;;3.70;;
9392;SDS011;4736;52.508;13.422;2023-07-31T02:26:26;4.00;;;3.70;;
9392;SDS011;4736;52.508;13.422;2023-07-31T02:29:30;4.13;;;3.90;;
9392;SDS011;4736;52.508;13.422;2023-07-31T02:32:33;3.83;;;3.13;;
9392;SDS011;4736;52.508;13.422;2023-07-31T02:35:36;4.23;;;4.00;;
9392;SDS011;4736;52.508;13.422;2023-07-31T02:38:40;6.47;;;4.97;;
9392;SDS011;4736;52.508;13.422;2023-07-31T02:41:43;4.93;;;4.53;;
9392;SDS011;4736;52.508;13.422;2023-07-31T02:44:47;4.30;;;4.00;;
9392;SDS011;4736;52.508;13.422;2023-07-31T02:47:53;4.30;;;4.00;;
9392;SDS011;4736;52.508;13.422;2023-07-31T02:50:56;4.30;;;4.10;;
9392;SDS011;4736;52.508;13.422;2023-07-31T02:53:59;4.90;;;4.50;;
9392;SDS011;4736;52.508;13.422;2023-07-31T02:57:02;4.90;;;4.53;;
9392;SDS011;4736;52.508;13.422;2023-07-31T03:00:09;4.93;;;4.50;;
9392;SDS011;4736;52.508;13.422;2023-07-31T03:03:13;4.33;;;4.03;;
9392;SDS011;4736;52.508;13.422;2023-07-31T03:06:16;5.10;;;4.80;;
9392;SDS011;4736;52.508;13.422;2023-07-31T03:09:19;5.07;;;4.67;;
9392;SDS011;4736;52.508;13.422;2023-07-31T03:12:22;5.00;;;4.70;;
9392;SDS011;4736;52.508;13.422;2023-07-31T03:15:27;6.97;;;5.33;;
9392;SDS011;4736;52.508;13.422;2023-07-31T03:18:30;5.00;;;4.80;;
9392;SDS011;4736;52.508;13.422;2023-07-31T03:21:34;5.10;;;4.80;;
9392;SDS011;4736;52.508;13.422;2023-07-31T03:24:37;5.43;;;5.03;;
9392;SDS011;4736;52.508;13.422;2023-07-31T03:27:40;7.10;;;6.03;;
9392;SDS011;4736;52.508;13.422;2023-07-31T03:30:45;5.50;;;5.20;;
9392;SDS011;4736;52.508;13.422;2023-07-31T03:33:48;5.37;;;5.03;;
9392;SDS011;4736;52.508;13.422;2023-07-31T03:36:51;5.97;;;5.47;;
9392;SDS011;4736;52.508;13.422;2023-07-31T03:39:54;5.93;;;5.60;;
9392;SDS011;4736;52.508;13.422;2023-07-31T03:42:58;7.40;;;6.10;;
9392;SDS011;4736;52.508;13.422;2023-07-31T03:46:03;6.40;;;6.07;;
9392;SDS011;4736;52.508;13.422;2023-07-31T03:49:06;7.43;;;6.50;;
9392;SDS011;4736;52.508;13.422;2023-07-31T03:52:09;6.40;;;5.93;;
9392;SDS011;4736;52.508;13.422;2023-07-31T03:55:12;6.17;;;5.57;;
9392;SDS011;4736;52.508;13.422;2023-07-31T03:58:15;6.97;;;6.37;;
9392;SDS011;4736;52.508;13.422;2023-07-31T04:01:20;8.30;;;6.67;;
9392;SDS011;4736;52.508;13.422;2023-07-31T04:04:23;6.20;;;5.70;;
9392;SDS011;4736;52.508;13.422;2023-07-31T04:07:26;7.13;;;6.27;;
9392;SDS011;4736;52.508;13.422;2023-07-31T04:10:30;6.67;;;6.17;;
9392;SDS011;4736;52.508;13.422;2023-07-31T04:13:34;5.60;;;5.37;;
9392;SDS011;4736;52.508;13.422;2023-07-31T04:16:39;6.80;;;5.97;;
9392;SDS011;4736;52.508;13.422;2023-07-31T04:19:43;5.93;;;5.63;;
9392;SDS011;4736;52.508;13.422;2023-07-31T04:22:49;6.97;;;6.37;;
9392;SDS011;4736;52.508;13.422;2023-07-31T04:25:52;6.23;;;5.70;;
9392;SDS011;4736;52.508;13.422;2023-07-31T04:28:55;6.47;;;5.87;;
9392;SDS011;4736;52.508;13.422;2023-07-31T04:32:00;6.60;;;5.37;;
9392;SDS011;4736;52.508;13.422;2023-07-31T04:35:03;6.60;;;6.13;;
9392;SDS011;4736;52.508;13.422;2023-07-31T04:38:07;6.43;;;5.93;;
9392;SDS011;4736;52.508;13.422;2023-07-31T04:41:10;6.47;;;5.87;;
9392;SDS011;4736;52.508;13.422;2023-07-31T04:44:13;6.00;;;5.50;;
9392;SDS011;4736;52.508;13.422;2023-07-31T04:47:18;7.03;;;5.40;;
9392;SDS011;4736;52.508;13.422;2023-07-31T04:50:21;6.23;;;5.73;;
9392;SDS011;4736;52.508;13.422;2023-07-31T04:53:24;5.70;;;5.30;;
9392;SDS011;4736;52.508;13.422;2023-07-31T04:56:27;5.93;;;5.40;;
9392;SDS011;4736;52.508;13.422;2023-07-31T04:59:30;6.17;;;5.70;;
9392;SDS011;4736;52.508;13.422;2023-07-31T05:02:35;6.77;;;6.07;;
9392;SDS011;4736;52.508;13.422;2023-07-31T05:05:38;6.07;;;5.53;;
9392;SDS011;4736;52.508;13.422;2023-07-31T05:08:41;6.40;;;5.90;;
9392;SDS011;4736;52.508;13.422;2023-07-31T05:11:45;6.17;;;5.73;;
9392;SDS011;4736;52.508;13.422;2023-07-31T05:14:48;6.73;;;6.23;;
9392;SDS011;4736;52.508;13.422;2023-07-31T05:17:52;6.90;;;6.30;;
9392;SDS011;4736;52.508;13.422;2023-07-31T05:20:56;5.97;;;5.57;;
9392;SDS011;4736;52.508;13.422;2023-07-31T05:23:59;6.53;;;5.93;;
9392;SDS011;4736;52.508;13.422;2023-07-31T05:27:02;6.67;;;6.17;;
9392;SDS011;4736;52.508;13.422;2023-07-31T05:30:07;6.70;;;6.00;;
9392;SDS011;4736;52.508;13.422;2023-07-31T05:33:12;6.37;;;5.87;;
9392;SDS011;4736;52.508;13.422;2023-07-31T05:36:15;5.83;;;5.23;;
9392;SDS011;4736;52.508;13.422;2023-07-31T05:39:19;6.37;;;5.77;;
9392;SDS011;4736;52.508;13.422;2023-07-31T05:42:22;6.33;;;5.00;;
9392;SDS011;4736;52.508;13.422;2023-07-31T05:45:25;6.30;;;4.60;;
9392;SDS011;4736;52.508;13.422;2023-07-31T05:48:29;6.17;;;5.47;;
9392;SDS011;4736;52.508;13.422;2023-07-31T05:51:33;6.77;;;5.30;;
9392;SDS011;4736;52.508;13.422;2023-07-31T05:54:36;5.90;;;5.30;;
9392;SDS011;4736;52.508;13.422;2023-07-31T05:57:39;6.67;;;6.07;;
9392;SDS011;4736;52.508;13.422;2023-07-31T06:00:42;6.47;;;5.20;;
9392;SDS011;4736;52.508;13.422;2023-07-31T06:03:47;5.40;;;4.90;;
9392;SDS011;4736;52.508;13.422;2023-07-31T06:11:12;6.03;;;5.43;;
9392;SDS011;4736;52.508;13.422;2023-07-31T06:14:15;5.73;;;5.27;;
9392;SDS011;4736;52.508;13.422;2023-07-31T06:17:19;5.03;;;4.80;;
9392;SDS011;4736;52.508;13.422;2023-07-31T06:20:24;5.73;;;5.17;;
9392;SDS011;4736;52.508;13.422;2023-07-31T06:23:28;5.93;;;4.70;;
9392;SDS011;4736;52.508;13.422;2023-07-31T06:26:31;5.20;;;4.70;;
9392;SDS011;4736;52.508;13.422;2023-07-31T06:29:34;4.83;;;4.47;;
9392;SDS011;4736;52.508;13.422;2023-07-31T06:32:37;5.90;;;5.20;;
9392;SDS011;4736;52.508;13.422;2023-07-31T06:35:43;6.07;;;5.00;;
9392;SDS011;4736;52.508;13.422;2023-07-31T06:38:47;4.83;;;4.50;;
9392;SDS011;4736;52.508;13.422;2023-07-31T06:41:51;4.73;;;4.33;;
9392;SDS011;4736;52.508;13.422;2023-07-31T06:44:54;4.83;;;4.43;;
9392;SDS011;4736;52.508;13.422;2023-07-31T06:48:02;4.37;;;4.17;;
9392;SDS011;4736;52.508;13.422;2023-07-31T06:51:07;3.97;;;3.77;;
9392;SDS011;4736;52.508;13.422;2023-07-31T06:54:11;4.20;;;3.97;;
9392;SDS011;4736;52.508;13.422;2023-07-31T06:57:14;4.90;;;3.67;;
9392;SDS011;4736;52.508;13.422;2023-07-31T07:00:17;6.17;;;4.37;;
9392;SDS011;4736;52.508;13.422;2023-07-31T07:03:21;4.80;;;4.40;;
9392;SDS011;4736;52.508;13.422;2023-07-31T07:06:25;3.77;;;3.57;;
9392;SDS011;4736;52.508;13.422;2023-07-31T07:09:28;4.67;;;3.67;;
9392;SDS011;4736;52.508;13.422;2023-07-31T07:12:32;6.03;;;4.00;;
9392;SDS011;4736;52.508;13.422;2023-07-31T07:15:35;3.97;;;3.67;;
9392;SDS011;4736;52.508;13.422;2023-07-31T07:18:38;4.57;;;4.30;;
9392;SDS011;4736;52.508;13.422;2023-07-31T07:22:03;4.70;;;4.20;;
9392;SDS011;4736;52.508;13.422;2023-07-31T07:25:07;6.40;;;4.23;;
9392;SDS011;4736;52.508;13.422;2023-07-31T07:28:11;5.13;;;4.53;;
9392;SDS011;4736;52.508;13.422;2023-07-31T07:31:14;4.10;;;3.80;;
9392;SDS011;4736;52.508;13.422;2023-07-31T07:34:18;4.80;;;4.50;;
9392;SDS011;4736;52.508;13.422;2023-07-31T07:37:22;4.53;;;4.17;;
9392;SDS011;4736;52.508;13.422;2023-07-31T07:40:26;6.37;;;4.40;;
9392;SDS011;4736;52.508;13.422;2023-07-31T07:43:29;4.27;;;3.97;;
9392;SDS011;4736;52.508;13.422;2023-07-31T07:46:32;4.30;;;3.87;;
9392;SDS011;4736;52.508;13.422;2023-07-31T07:49:35;4.00;;;3.83;;
9392;SDS011;4736;52.508;13.422;2023-07-31T07:52:39;4.17;;;3.97;;
9392;SDS011;4736;52.508;13.422;2023-07-31T07:55:43;4.63;;;4.10;;
9392;SDS011;4736;52.508;13.422;2023-07-31T07:58:48;5.70;;;4.50;;
9392;SDS011;4736;52.508;13.422;2023-07-31T08:01:51;3.77;;;3.67;;
9392;SDS011;4736;52.508;13.422;2023-07-31T08:04:54;4.20;;;3.90;;
9392;SDS011;4736;52.508;13.422;2023-07-31T08:07:59;3.73;;;3.53;;
9392;SDS011;4736;52.508;13.422;2023-07-31T08:11:02;3.23;;;3.13;;
9392;SDS011;4736;52.508;13.422;2023-07-31T08:14:06;3.17;;;3.07;;
9392;SDS011;4736;52.508;13.422;2023-07-31T08:17:09;3.90;;;3.60;;
9392;SDS011;4736;52.508;13.422;2023-07-31T08:20:12;3.83;;;3.50;;
9392;SDS011;4736;52.508;13.422;2023-07-31T08:23:17;5.77;;;5.37;;
9392;SDS011;4736;52.508;13.422;2023-07-31T08:26:20;3.87;;;3.70;;
9392;SDS011;4736;52.508;13.422;2023-07-31T08:29:24;3.60;;;3.40;;
9392;SDS011;4736;52.508;13.422;2023-07-31T08:32:27;3.30;;;3.20;;
9392;SDS011;4736;52.508;13.422;2023-07-31T08:35:31;3.23;;;3.13;;
9392;SDS011;4736;52.508;13.422;2023-07-31T08:38:35;4.30;;;3.70;;
9392;SDS011;4736;52.508;13.422;2023-07-31T08:41:39;3.30;;;3.20;;
9392;SDS011;4736;52.508;13.422;2023-07-31T08:44:42;3.77;;;3.37;;
9392;SDS011;4736;52.508;13.422;2023-07-31T08:47:47;3.97;;;3.83;;
9392;SDS011;4736;52.508;13.422;2023-07-31T08:50:51;4.87;;;4.57;;
9392;SDS011;4736;52.508;13.422;2023-07-31T08:53:57;4.07;;;3.60;;
9392;SDS011;4736;52.508;13.422;2023-07-31T08:57:00;3.60;;;3.50;;
9392;SDS011;4736;52.508;13.422;2023-07-31T09:00:04;3.40;;;3.20;;
9392;SDS011;4736;52.508;13.422;2023-07-31T09:03:09;3.13;;;2.93;;
9392;SDS011;4736;52.508;13.422;2023-07-31T09:06:17;3.33;;;3.10;;
9392;SDS011;4736;52.508;13.422;2023-07-31T09:09:25;3.53;;;3.23;;
9392;SDS011;4736;52.508;13.422;2023-07-31T09:12:28;3.57;;;3.33;;
9392;SDS011;4736;52.508;13.422;2023-07-31T09:15:34;3.73;;;3.53;;
9392;SDS011;4736;52.508;13.422;2023-07-31T09:18:52;3.30;;;3.10;;
9392;SDS011;4736;52.508;13.422;2023-07-31T09:21:56;3.33;;;3.23;;
9392;SDS011;4736;52.508;13.422;2023-07-31T09:25:05;3.20;;;2.97;;
9392;SDS011;4736;52.508;13.422;2023-07-31T09:28:17;3.20;;;3.00;;
9392;SDS011;4736;52.508;13.422;2023-07-31T09:31:31;2.80;;;2.80;;
9392;SDS011;4736;52.508;13.422;2023-07-31T09:34:36;3.13;;;2.93;;
9392;SDS011;4736;52.508;13.422;2023-07-31T09:37:40;3.20;;;3.00;;
9392;SDS011;4736;52.508;13.422;2023-07-31T09:40:46;2.77;;;2.60;;
9392;SDS011;4736;52.508;13.422;2023-07-31T09:43:52;2.60;;;2.60;;
9392;SDS011;4736;52.508;13.422;2023-07-31T09:46:56;3.13;;;2.40;;
9392;SDS011;4736;52.508;13.422;2023-07-31T09:49:59;5.00;;;4.20;;
9392;SDS011;4736;52.508;13.422;2023-07-31T09:53:02;3.50;;;3.40;;
9392;SDS011;4736;52.508;13.422;2023-07-31T09:56:07;2.20;;;2.20;;
9392;SDS011;4736;52.508;13.422;2023-07-31T09:59:11;2.60;;;2.50;;
9392;SDS011;4736;52.508;13.422;2023-07-31T10:02:17;2.70;;;2.50;;
9392;SDS011;4736;52.508;13.422;2023-07-31T10:05:24;2.63;;;2.50;;
9392;SDS011;4736;52.508;13.422;2023-07-31T10:08:33;2.70;;;2.60;;
9392;SDS011;4736;52.508;13.422;2023-07-31T10:11:41;3.27;;;3.17;;
9392;SDS011;4736;52.508;13.422;2023-07-31T10:14:52;2.83;;;2.83;;
9392;SDS011;4736;52.508;13.422;2023-07-31T10:17:57;3.10;;;3.00;;
9392;SDS011;4736;52.508;13.422;2023-07-31T10:21:01;3.27;;;2.90;;
9392;SDS011;4736;52.508;13.422;2023-07-31T10:24:05;4.10;;;3.80;;
9392;SDS011;4736;52.508;13.422;2023-07-31T10:27:11;4.40;;;4.10;;
9392;SDS011;4736;52.508;13.422;2023-07-31T10:30:15;4.83;;;4.43;;
9392;SDS011;4736;52.508;13.422;2023-07-31T10:33:20;5.07;;;4.60;;
9392;SDS011;4736;52.508;13.422;2023-07-31T10:36:24;5.40;;;4.93;;
9392;SDS011;4736;52.508;13.422;2023-07-31T10:39:34;5.00;;;4.67;;
9392;SDS011;4736;52.508;13.422;2023-07-31T10:42:46;5.37;;;4.83;;
9392;SDS011;4736;52.508;13.422;2023-07-31T10:45:50;6.10;;;4.60;;
9392;SDS011;4736;52.508;13.422;2023-07-31T10:48:57;5.10;;;4.73;;
9392;SDS011;4736;52.508;13.422;2023-07-31T10:52:02;4.50;;;4.30;;
9392;SDS011;4736;52.508;13.422;2023-07-31T10:58:29;6.23;;;5.03;;
9392;SDS011;4736;52.508;13.422;2023-07-31T11:05:08;6.10;;;4.70;;
9392;SDS011;4736;52.508;13.422;2023-07-31T11:08:14;4.73;;;4.37;;
9392;SDS011;4736;52.508;13.422;2023-07-31T11:11:19;4.83;;;4.53;;
9392;SDS011;4736;52.508;13.422;2023-07-31T11:14:24;4.93;;;4.57;;
9392;SDS011;4736;52.508;13.422;2023-07-31T11:17:27;4.90;;;4.50;;
9392;SDS011;4736;52.508;13.422;2023-07-31T11:20:31;6.40;;;4.40;;
9392;SDS011;4736;52.508;13.422;2023-07-31T11:23:36;4.83;;;4.47;;
9392;SDS011;4736;52.508;13.422;2023-07-31T11:26:47;4.70;;;4.33;;
9392;SDS011;4736;52.508;13.422;2023-07-31T11:29:53;9.23;;;4.70;;
9392;SDS011;4736;52.508;13.422;2023-07-31T11:33:08;4.50;;;4.20;;
9392;SDS011;4736;52.508;13.422;2023-07-31T11:36:14;4.30;;;4.10;;
9392;SDS011;4736;52.508;13.422;2023-07-31T11:39:19;5.07;;;4.70;;
9392;SDS011;4736;52.508;13.422;2023-07-31T11:42:22;4.60;;;4.27;;
9392;SDS011;4736;52.508;13.422;2023-07-31T11:45:27;5.07;;;4.70;;
9392;SDS011;4736;52.508;13.422;2023-07-31T11:48:31;4.93;;;4.57;;
9392;SDS011;4736;52.508;13.422;2023-07-31T11:51:37;4.77;;;4.33;;
9392;SDS011;4736;52.508;13.422;2023-07-31T11:54:40;4.23;;;3.93;;
9392;SDS011;4736;52.508;13.422;2023-07-31T11:57:43;4.43;;;4.20;;
9392;SDS011;4736;52.508;13.422;2023-07-31T12:00:49;5.00;;;4.50;;
9392;SDS011;4736;52.508;13.422;2023-07-31T12:03:52;5.43;;;4.20;;
9392;SDS011;4736;52.508;13.422;2023-07-31T12:06:56;5.43;;;4.93;;
9392;SDS011;4736;52.508;13.422;2023-07-31T12:10:02;4.63;;;4.17;;
9392;SDS011;4736;52.508;13.422;2023-07-31T12:13:07;4.40;;;4.00;;
9392;SDS011;4736;52.508;13.422;2023-07-31T12:16:16;4.80;;;4.40;;
9392;SDS011;4736;52.508;13.422;2023-07-31T12:19:20;5.57;;;5.17;;
9392;SDS011;4736;52.508;13.422;2023-07-31T12:22:23;4.27;;;3.97;;
9392;SDS011;4736;52.508;13.422;2023-07-31T12:25:29;4.00;;;3.73;;
9392;SDS011;4736;52.508;13.422;2023-07-31T12:28:36;4.47;;;4.03;;
9392;SDS011;4736;52.508;13.422;2023-07-31T12:31:42;4.83;;;3.97;;
9392;SDS011;4736;52.508;13.422;2023-07-31T12:34:45;4.30;;;4.00;;
9392;SDS011;4736;52.508;13.422;2023-07-31T12:37:48;3.90;;;3.70;;
9392;SDS011;4736;52.508;13.422;2023-07-31T12:40:51;3.93;;;3.73;;
9392;SDS011;4736;52.508;13.422;2023-07-31T12:43:54;4.37;;;4.07;;
9392;SDS011;4736;52.508;13.422;2023-07-31T12:46:59;5.07;;;4.47;;
9392;SDS011;4736;52.508;13.422;2023-07-31T12:50:04;4.60;;;4.30;;
9392;SDS011;4736;52.508;13.422;2023-07-31T12:53:07;3.87;;;3.60;;
9392;SDS011;4736;52.508;13.422;2023-07-31T12:56:11;3.90;;;3.70;;
9392;SDS011;4736;52.508;13.422;2023-07-31T12:59:14;4.13;;;3.83;;
9392;SDS011;4736;52.508;13.422;2023-07-31T13:02:18;3.90;;;3.63;;
9392;SDS011;4736;52.508;13.422;2023-07-31T13:05:25;5.70;;;3.47;;
9392;SDS011;4736;52.508;13.422;2023-07-31T13:08:28;3.43;;;3.33;;
9392;SDS011;4736;52.508;13.422;2023-07-31T13:11:31;3.27;;;3.00;;
9392;SDS011;4736;52.508;13.422;2023-07-31T13:14:35;2.80;;;2.60;;
9392;SDS011;4736;52.508;13.422;2023-07-31T13:17:39;3.30;;;3.10;;
9392;SDS011;4736;52.508;13.422;2023-07-31T13:20:42;3.20;;;3.00;;
9392;SDS011;4736;52.508;13.422;2023-07-31T13:23:45;4.23;;;3.50;;
9392;SDS011;4736;52.508;13.422;2023-07-31T13:26:49;3.40;;;3.13;;
9392;SDS011;4736;52.508;13.422;2023-07-31T13:29:53;3.27;;;3.17;;
9392;SDS011;4736;52.508;13.422;2023-07-31T13:32:57;4.53;;;3.73;;
9392;SDS011;4736;52.508;13.422;2023-07-31T13:36:00;3.87;;;3.57;;
9392;SDS011;4736;52.508;13.422;2023-07-31T13:39:03;3.73;;;3.43;;
9392;SDS011;4736;52.508;13.422;2023-07-31T13:42:07;3.60;;;3.50;;
9392;SDS011;4736;52.508;13.422;2023-07-31T13:45:13;3.83;;;3.53;;
9392;SDS011;4736;52.508;13.422;2023-07-31T13:48:17;4.37;;;3.83;;
9392;SDS011;4736;52.508;13.422;2023-07-31T13:51:21;4.23;;;3.97;;
9392;SDS011;4736;52.508;13.422;2023-07-31T13:54:24;4.10;;;3.90;;
9392;SDS011;4736;52.508;13.422;2023-07-31T13:57:31;4.73;;;4.27;;
9392;SDS011;4736;52.508;13.422;2023-07-31T14:00:34;6.43;;;5.90;;
9392;SDS011;4736;52.508;13.422;2023-07-31T14:03:39;4.67;;;4.37;;
9392;SDS011;4736;52.508;13.422;2023-07-31T14:06:45;4.83;;;4.43;;
9392;SDS011;4736;52.508;13.422;2023-07-31T14:09:49;4.40;;;4.10;;
9392;SDS011;4736;52.508;13.422;2023-07-31T14:12:52;4.53;;;4.23;;
9392;SDS011;4736;52.508;13.422;2023-07-31T14:15:56;4.50;;;4.10;;
9392;SDS011;4736;52.508;13.422;2023-07-31T14:19:01;4.03;;;3.83;;
9392;SDS011;4736;52.508;13.422;2023-07-31T14:22:05;5.60;;;4.23;;
9392;SDS011;4736;52.508;13.422;2023-07-31T14:25:12;4.50;;;4.30;;
9392;SDS011;4736;52.508;13.422;2023-07-31T14:28:15;3.93;;;3.80;;
9392;SDS011;4736;52.508;13.422;2023-07-31T14:31:18;4.80;;;4.17;;
9392;SDS011;4736;52.508;13.422;2023-07-31T14:34:23;4.13;;;3.93;;
9392;SDS011;4736;52.508;13.422;2023-07-31T14:37:26;4.30;;;3.97;;
9392;SDS011;4736;52.508;13.422;2023-07-31T14:40:39;4.10;;;3.80;;
9392;SDS011;4736;52.508;13.422;2023-07-31T14:43:44;4.80;;;4.50;;
9392;SDS011;4736;52.508;13.422;2023-07-31T14:46:47;4.23;;;3.90;;
9392;SDS011;4736;52.508;13.422;2023-07-31T14:49:51;4.13;;;3.83;;
9392;SDS011;4736;52.508;13.422;2023-07-31T14:52:55;5.17;;;4.27;;
9392;SDS011;4736;52.508;13.422;2023-07-31T14:55:58;4.07;;;3.87;;
9392;SDS011;4736;52.508;13.422;2023-07-31T14:59:02;5.07;;;4.60;;
9392;SDS011;4736;52.508;13.422;2023-07-31T15:02:05;4.30;;;4.10;;
9392;SDS011;4736;52.508;13.422;2023-07-31T15:05:12;4.53;;;4.30;;
9392;SDS011;4736;52.508;13.422;2023-07-31T15:08:15;3.93;;;3.73;;
9392;SDS011;4736;52.508;13.422;2023-07-31T15:11:18;4.23;;;4.03;;
9392;SDS011;4736;52.508;13.422;2023-07-31T15:14:23;4.00;;;3.80;;
9392;SDS011;4736;52.508;13.422;2023-07-31T15:17:26;3.93;;;3.73;;
9392;SDS011;4736;52.508;13.422;2023-07-31T15:20:32;4.57;;;4.17;;
9392;SDS011;4736;52.508;13.422;2023-07-31T15:23:35;4.33;;;4.03;;
9392;SDS011;4736;52.508;13.422;2023-07-31T15:26:40;4.50;;;4.10;;
9392;SDS011;4736;52.508;13.422;2023-07-31T15:29:44;4.90;;;4.50;;
9392;SDS011;4736;52.508;13.422;2023-07-31T15:32:47;4.83;;;4.43;;
9392;SDS011;4736;52.508;13.422;2023-07-31T15:35:53;4.77;;;4.30;;
9392;SDS011;4736;52.508;13.422;2023-07-31T15:38:57;5.17;;;4.70;;
9392;SDS011;4736;52.508;13.422;2023-07-31T15:42:00;4.90;;;4.60;;
9392;SDS011;4736;52.508;13.422;2023-07-31T15:45:04;4.83;;;4.40;;
9392;SDS011;4736;52.508;13.422;2023-07-31T15:48:08;4.40;;;4.10;;
9392;SDS011;4736;52.508;13.422;2023-07-31T15:51:13;7.90;;;7.20;;
9392;SDS011;4736;52.508;13.422;2023-07-31T15:54:17;6.37;;;5.87;;
9392;SDS011;4736;52.508;13.422;2023-07-31T15:57:20;5.37;;;4.87;;
9392;SDS011;4736;52.508;13.422;2023-07-31T16:00:23;5.37;;;4.90;;
9392;SDS011;4736;52.508;13.422;2023-07-31T16:03:27;5.47;;;5.07;;
9392;SDS011;4736;52.508;13.422;2023-07-31T16:06:31;5.53;;;5.23;;
9392;SDS011;4736;52.508;13.422;2023-07-31T16:09:37;4.90;;;4.57;;
9392;SDS011;4736;52.508;13.422;2023-07-31T16:12:40;5.73;;;5.43;;
9392;SDS011;4736;52.508;13.422;2023-07-31T16:15:43;4.30;;;4.03;;
9392;SDS011;4736;52.508;13.422;2023-07-31T16:18:46;4.73;;;4.40;;
9392;SDS011;4736;52.508;13.422;2023-07-31T16:21:51;4.23;;;3.93;;
9392;SDS011;4736;52.508;13.422;2023-07-31T16:24:54;5.03;;;4.73;;
9392;SDS011;4736;52.508;13.422;2023-07-31T16:27:58;4.50;;;4.30;;
9392;SDS011;4736;52.508;13.422;2023-07-31T16:31:01;4.60;;;4.20;;
9392;SDS011;4736;52.508;13.422;2023-07-31T16:34:04;4.30;;;3.97;;
9392;SDS011;4736;52.508;13.422;2023-07-31T16:37:09;4.53;;;4.23;;
9392;SDS011;4736;52.508;13.422;2023-07-31T16:40:12;5.73;;;5.23;;
9392;SDS011;4736;52.508;13.422;2023-07-31T16:43:15;3.83;;;3.63;;
9392;SDS011;4736;52.508;13.422;2023-07-31T16:46:18;4.63;;;4.03;;
9392;SDS011;4736;52.508;13.422;2023-07-31T16:49:21;6.63;;;4.27;;
9392;SDS011;4736;52.508;13.422;2023-07-31T16:52:27;3.57;;;3.37;;
9392;SDS011;4736;52.508;13.422;2023-07-31T16:55:30;4.13;;;3.83;;
9392;SDS011;4736;52.508;13.422;2023-07-31T16:58:37;4.07;;;3.77;;
9392;SDS011;4736;52.508;13.422;2023-07-31T17:01:41;4.33;;;3.97;;
9392;SDS011;4736;52.508;13.422;2023-07-31T17:04:44;6.57;;;4.33;;
9392;SDS011;4736;52.508;13.422;2023-07-31T17:07:49;3.70;;;3.47;;
9392;SDS011;4736;52.508;13.422;2023-07-31T17:10:52;4.07;;;3.87;;
9392;SDS011;4736;52.508;13.422;2023-07-31T17:13:55;3.97;;;3.77;;
9392;SDS011;4736;52.508;13.422;2023-07-31T17:16:58;4.03;;;3.80;;
9392;SDS011;4736;52.508;13.422;2023-07-31T17:20:02;4.07;;;3.90;;
9392;SDS011;4736;52.508;13.422;2023-07-31T17:23:06;3.90;;;3.70;;
9392;SDS011;4736;52.508;13.422;2023-07-31T17:26:10;3.67;;;3.50;;
9392;SDS011;4736;52.508;13.422;2023-07-31T17:29:14;4.07;;;3.87;;
9392;SDS011;4736;52.508;13.422;2023-07-31T17:32:18;4.27;;;3.97;;
9392;SDS011;4736;52.508;13.422;2023-07-31T17:35:25;3.83;;;3.63;;
9392;SDS011;4736;52.508;13.422;2023-07-31T17:38:29;4.20;;;4.00;;
9392;SDS011;4736;52.508;13.422;2023-07-31T17:41:33;4.13;;;3.83;;
9392;SDS011;4736;52.508;13.422;2023-07-31T17:44:36;4.47;;;4.07;;
9392;SDS011;4736;52.508;13.422;2023-07-31T17:47:39;4.40;;;4.00;;
9392;SDS011;4736;52.508;13.422;2023-07-31T17:50:43;4.13;;;4.03;;
9392;SDS011;4736;52.508;13.422;2023-07-31T17:53:53;4.23;;;3.90;;
9392;SDS011;4736;52.508;13.422;2023-07-31T17:56:56;3.47;;;3.37;;
9392;SDS011;4736;52.508;13.422;2023-07-31T17:59:59;3.80;;;3.60;;
9392;SDS011;4736;52.508;13.422;2023-07-31T18:03:02;3.60;;;3.40;;
9392;SDS011;4736;52.508;13.422;2023-07-31T18:06:07;4.30;;;3.90;;
9392;SDS011;4736;52.508;13.422;2023-07-31T18:09:12;3.97;;;3.77;;
9392;SDS011;4736;52.508;13.422;2023-07-31T18:12:15;4.13;;;3.93;;
9392;SDS011;4736;52.508;13.422;2023-07-31T18:15:18;4.30;;;4.10;;
9392;SDS011;4736;52.508;13.422;2023-07-31T18:18:22;3.97;;;3.77;;
9392;SDS011;4736;52.508;13.422;2023-07-31T18:21:27;4.20;;;3.73;;
9392;SDS011;4736;52.508;13.422;2023-07-31T18:24:34;4.13;;;3.70;;
9392;SDS011;4736;52.508;13.422;2023-07-31T18:27:39;3.70;;;3.53;;
9392;SDS011;4736;52.508;13.422;2023-07-31T18:30:42;3.70;;;3.43;;
9392;SDS011;4736;52.508;13.422;2023-07-31T18:33:45;3.50;;;3.40;;
9392;SDS011;4736;52.508;13.422;2023-07-31T18:36:48;3.30;;;3.10;;
9392;SDS011;4736;52.508;13.422;2023-07-31T18:39:53;4.10;;;3.80;;
9392;SDS011;4736;52.508;13.422;2023-07-31T18:42:56;3.53;;;3.33;;
9392;SDS011;4736;52.508;13.422;2023-07-31T18:46:00;3.83;;;3.53;;
9392;SDS011;4736;52.508;13.422;2023-07-31T18:49:03;3.60;;;3.40;;
9392;SDS011;4736;52.508;13.422;2023-07-31T18:52:07;3.50;;;3.30;;
9392;SDS011;4736;52.508;13.422;2023-07-31T18:55:11;3.80;;;3.70;;
9392;SDS011;4736;52.508;13.422;2023-07-31T18:58:14;4.33;;;4.03;;